Kezdőlap
METAR-TAF:

METAR-TAF

Repülőterek :

légibázis

Tulln an der Donau, Ausztria

földrajzi szélesség: 48-19N, földrajzi hosszúság: 016-07E, magasság: 175 m

METAR: hiányzik

Idő: 04:16 (03:16 UTC)

Előrejelzés

A jelentés 16 órával és 1 perccel ezelõtt készült, 11:15 UTC
Az előrejelzés 22-én 12 óra UTC és 22-én 21 óra UTC között érvényes
Kelet-északkeleti szél 4 kt
Látótávolság: 2500 m
Kevés felhő 500 lábon
Szakadozott felhőzet 800 lábon
Valószínűség 30%
22-én 14 óra UTC és 22-én 21 óra UTC között
Látótávolság: 6000 m
Szakadozott felhőzet 2500 lábon

TAF: LOXT 221115Z 2212/2221 06004KT 2500 FEW005 BKN008 PROB30 2214/2221 6000 BKN025

Meteorológiai megfigyelések és előrejelzések több, mint 4000 repülőtéren (METAR és TAF jelentéseket).

A térképen piros és sárga pontok jelzik az elérhető meteorológiai állomásokat.

Mozgassa az egeret a pont fölött, hogy megjelenjen az állomás neve.

Azután kattintson az időjárási megfigyelések és előrejelzések megtekintéséhez.

A térkép megváltoztatása: kattintson a fekete keresztel jelölt zöld gombra ráközelítéshez, a vonallal jelölt zöld gombra távolításhoz, vagy a zöld nyilakra a szomszédos térképek eléréséhez.


METAR-TAF: